Portada
METAR-TAF:

METAR-TAF

Aeroports :

Harrison, Arkansas, Estats Units d'Amèrica

latitud: 36-15-42N, longitud: 093-09-17W, altitud: 416 m

Observació

L'informe es va fer fa 1 hora i 11 minuts, a les 01:53 UTC
Vent calma
Temperatura 30°C
Humitat 55%
Pressió 1014 hPa
Visibilitat: 16.1 km
Cel clar

METAR: KHRO 250153Z AUTO 00000KT 10SM CLR 30/20 A2994 RMK AO2 SLP117 T03000200

Hora: 22:04 (03:04 UTC)

Pronòstic

L'informe es va fer fa 3 hores i 44 minuts, a les 23:20 UTC
Pronòstic vàlid del 25 a les 00 UTC al 25 a les 24 UTC
Vent 9 kt del Sud
Visibilitat: 10 km
Escasses núvols a una alçada de 5000 ft
A partir de les 25 a les 0200 UTC
Vent 3 kt del Sud
Visibilitat: 10 km
Cel clar
A partir de les 25 a les 1500 UTC
Vent 8 kt del Sud/Sud-Oest amb ràfegues de 18 kt
Visibilitat: 10 km
Núvols disperses a una alçada de 5000 ft
Núvols disperses a una alçada de 25000 ft

TAF: KHRO 242320Z 2500/2524 18009KT P6SM FEW050 FM250200 18003KT P6SM SKC FM251500 21008G18KT P6SM SCT050 SCT250

Observacions i pronòstics meteorològics de més de 4000 aeroports (METAR i TAF).

Les estacions disponibles són els punts grocs i vermells al mapa.

Posi el ratolí al punt desitjat per veure el nom de l'estació.

Feu clic per veure les observacions i els pronòstics meteorològics.

Per canviar el mapa: feu clic els botons verds amb una creu de color negre per apropar; al botó verd amb un guió per allunyar la imatge; o en les fletxes verdes per a mapes adjacents.


METAR-TAF: